Flight Track Log - Related Links

Times and Time Zones

All times are in EST time to prevent confusion due to time zone crossing. See the SKW6345 flight status page for this flight to view local times or setup timezone preferences in your user account.

Time Position Orientation Groundspeed Altitude Reporting Facility
EST Latitude Longitude Course Direction KTS MPH feet Rate Location/Type
Mon 12:30:24 PM 39.2486 -106.8703 101° East 183 211 25,000  Level Denver Center
Mon 12:31:27 PM 39.2661 -106.9297 291° West 209 241 12,200 -4,752 Descending Denver Center
Mon 12:32:29 PM 39.3047 -106.9875 311° West 232 267 15,100 2,661 Climbing Denver Center
Mon 12:33:00 PM 39.3501 -106.4670 104° East  Level FlightAware Approximate
Mon 12:33:31 PM 39.3483 -106.8917 60° Northeast 300 345 17,700  Level Denver Center
Mon 12:34:00 PM 39.3313 -106.3537 101° East  Level FlightAware Approximate
Mon 12:34:33 PM 39.3494 -106.7700 89° East 339 390 19,800  Level Denver Center
Mon 12:35:00 PM 39.3133 -106.2360 101° East  Level FlightAware Approximate
Mon 12:35:35 PM 39.3514 -106.6142 89° East 381 438 21,000  Level Denver Center
Mon 12:36:37 PM 39.3464 -106.4861 93° East 375 432 21,000  Level Denver Center
Mon 12:37:39 PM 39.3089 -106.3394 108° East 384 442 21,000  Level Denver Center
Mon 12:38:41 PM 39.2619 -106.2236 118° Southeast 380 437 21,000  Level Denver Center
Mon 12:39:43 PM 39.2025 -106.1053 123° Southeast 385 443 21,000 48 Level Denver Center
Mon 12:40:45 PM 39.1436 -105.9883 123° Southeast 389 448 21,100  Climbing Denver Center
Mon 12:41:47 PM 39.1286 -105.8658 99° East 369 425 21,000 -48 Descending Denver Center
Mon 12:42:49 PM 39.2081 -105.7728 42° Northeast 322 371 21,000  Level Denver Center
Mon 12:43:51 PM 39.2769 -105.7050 37° Northeast 314 361 21,000 -48 Level Denver Center
Mon 12:44:53 PM 39.3369 -105.6128 50° Northeast 340 391 20,900 -242 Descending Denver Center
Mon 12:45:55 PM 39.3922 -105.4892 60° Northeast 390 449 20,500 -1,161 Descending Denver Center
Mon 12:46:57 PM 39.4608 -105.3603 55° Northeast 385 443 18,500 -1,500 Descending Denver Center
Mon 12:47:59 PM 39.5183 -105.2481 56° Northeast 374 430 17,400 -1,344 Descending Denver Center
Mon 12:49:02 PM 39.5822 -105.1289 55° Northeast 375 432 15,700 -1,200 Descending Denver Center
Mon 12:50:04 PM 39.6378 -105.0186 57° Northeast 369 425 14,900 -1,016 Descending Denver Center
Mon 12:51:06 PM 39.6911 -104.9167 56° Northeast 315 362 13,600 -919 Descending Denver Center
Mon 12:52:08 PM 39.7464 -104.8442 45° Northeast 294 338 13,000 -919 Descending Denver Center
Mon 12:53:10 PM 39.8225 -104.8408 North 272 313 11,700 -968 Descending Denver Center
Mon 12:54:12 PM 39.8953 -104.8394 North 233 268 11,000 -339 Descending Denver Center
Mon 12:55:14 PM 39.9583 -104.8386 North 225 259 11,000 -774 Level Denver Center
Mon 12:56:16 PM 40.0275 -104.8397 359° North 229 264 9,400 -1,306 Descending Denver Center
Mon 12:57:18 PM 40.0900 -104.8394 360° North 224 258 8,300 -677 Descending Denver Center
Mon 12:58:20 PM 40.0881 -104.7739 92° East 224 258 8,000 -194 Descending Denver Center
Mon 12:59:22 PM 40.0331 -104.7278 147° Southeast 222 255 7,900 -435 Descending Denver Center
Mon 01:00:24 PM 39.9797 -104.6978 157° South 204 235 7,100 -774 Descending Denver Center
Mon 01:01:26 PM 39.9342 -104.6958 178° South 154 177 6,300 -774 Descending Denver Center
Mon 01:02:28 PM 39.8986 -104.6961 180° South 131 151 5,500 -774 Descending Denver Center

Login

Don't have an account? Register now (free) for customized features, flight alerts, and more!